Surface/Precipitation History
12/18/2014 02:23  to  12/19/2014 02:23
Change End Date:
Date/Time
(MST)
Sf
Temp Chem Water Layer Surface Precipitation
Sf Sub Frz Factor Pct Depth IcePct Cond Salin Type Intens Accum Rate
12/19/2014 02:01 Ice Warning 27.9F 32F 32F 10 0% - 99% 0 mhos 48 None None - -
12/19/2014 01:52 Ice Warning 27.9F 32F 32F 10 0% - 99% 0 mhos 53 None None - -
12/19/2014 01:42 Ice Warning 27.3F 32F 32F 10 0% - 99% 0 mhos 62 None None - -
12/19/2014 01:32 Ice Warning 27.5F 32F 32F 10 0% - 99% 0 mhos 68 None None - -
12/19/2014 01:32 Ice Warning 27.5F 32F 32F 10 0% - 99% 0 mhos 70 None None - -
12/19/2014 01:22 Ice Warning 27.3F 32F 32F 10 0% - 99% 1 mhos 80 None None - -
12/19/2014 01:12 Ice Warning 27.9F 32F 32F 10 0% - 99% 1 mhos 95 None None - -
12/19/2014 01:02 Ice Warning 28.0F 32F 32F 10 0% - 99% 1 mhos 102 None None - -
12/19/2014 01:01 Ice Warning 28.0F 32F 32F 10 0% - 98% 1 mhos 122 None None - -
12/19/2014 00:52 Ice Warning 28.8F 32F 32F 10 1% - 97% 1 mhos 168 None None - -
12/19/2014 00:42 Ice Warning 28.9F 32F 32F 10 1% - 95% 2 mhos 302 None None - -
12/19/2014 00:32 Chemically Wet 29.1F 32F 31F 10 3% - 83% 8 mhos 943 None None - -
12/19/2014 00:29 Chemically Wet 29.1F 32F 27F 10 14% 0.00 in 0% 35 mhos 4245 None None - -
12/19/2014 00:22 Ice Warning 29.3F 32F 32F 10 0% - 100% 0 mhos 0 None None - -
12/19/2014 00:12 Ice Warning 29.3F 32F 32F 10 0% - 100% 0 mhos 0 None None - -
Date/Time
(MST)
Sf
Temp Chem Water Layer Surface Precipitation
Sf Sub Frz Factor Pct Depth IcePct Cond Salin Type Intens Accum Rate
12/19/2014 00:02 Ice Warning 29.5F 32F 32F 5 0% - 100% 0 mhos 0 None None - -
12/18/2014 23:59 Ice Warning 29.5F 32F 32F 5 0% - 100% 0 mhos 0 None None - -
12/18/2014 23:52 Ice Warning 29.5F 32F 32F 10 0% - 100% 0 mhos 0 None None - -
12/18/2014 23:42 Ice Warning 29.8F 32F 32F 10 0% - 100% 0 mhos 0 None None - -
12/18/2014 23:32 Ice Warning 29.7F 32F 32F 5 0% - 100% 0 mhos 0 None None - -
12/18/2014 23:32 Ice Warning 29.7F 32F 32F 5 0% - 100% 0 mhos 0 None None - -
12/18/2014 23:22 Ice Warning 30.0F 32F 32F 5 0% - 100% 0 mhos 0 None None - -
12/18/2014 23:12 Ice Warning 30.2F 32F 32F 5 0% - 100% 0 mhos 0 None None - -
12/18/2014 23:03 Ice Warning 30.2F 32F 32F 5 0% - 100% 0 mhos 0 None None - -
12/18/2014 23:02 Ice Warning 30.2F 32F 32F 5 0% - 100% 0 mhos 0 None None - -
12/18/2014 22:52 Ice Warning 30.6F 31F 32F 5 0% - 100% 0 mhos 0 None None - -
12/18/2014 22:41 Ice Warning 30.6F 31F 32F 5 0% - 100% 0 mhos 0 None None - -
12/18/2014 22:31 Ice Warning 30.4F 31F 32F 5 0% - 100% 0 mhos 0 None None - -
12/18/2014 22:31 Ice Warning 30.4F 32F 32F 5 0% - 100% 0 mhos 0 None None - -
12/18/2014 22:21 Ice Warning 30.6F 31F 32F 5 0% - 100% 0 mhos 0 None None - -
Date/Time
(MST)
Sf
Temp Chem Water Layer Surface Precipitation
Sf Sub Frz Factor Pct Depth IcePct Cond Salin Type Intens Accum Rate
12/18/2014 22:11 Ice Warning 30.7F 31F 32F 5 0% - 100% 0 mhos 0 None None - -
12/18/2014 22:01 Ice Warning 30.7F 31F 32F 5 0% - 100% 0 mhos 0 None None - -
12/18/2014 22:01 Ice Warning 30.7F 31F 32F 5 0% - 100% 0 mhos 0 None None - -
12/18/2014 21:51 Ice Warning 30.9F 31F 32F 5 0% - 100% 0 mhos 0 None None - -
12/18/2014 21:41 Ice Warning 30.9F 31F 32F 5 0% - 100% 0 mhos 0 None None - -
12/18/2014 21:31 Ice Warning 30.9F 31F 32F 10 0% - 100% 0 mhos 0 None None - -
12/18/2014 21:31 Ice Warning 30.9F 31F 32F 10 0% - 100% 0 mhos 0 None None - -
12/18/2014 21:21 Ice Warning 30.9F 31F 32F 10 0% - 99% 0 mhos 23 None None - -
12/18/2014 21:11 Ice Warning 30.9F 31F 32F 15 0% - 100% 0 mhos 0 None None - -
12/18/2014 21:01 Ice Warning 30.9F 31F 32F 10 0% - 100% 0 mhos 0 None None - -
12/18/2014 20:59 Ice Warning 31.1F 31F 32F 15 0% - 100% 0 mhos 0 None None - -
12/18/2014 20:51 Ice Warning 31.1F 31F 32F 10 0% - 100% 0 mhos 0 None None - -
12/18/2014 20:41 Ice Warning 31.1F 31F 32F 10 0% - 100% 0 mhos 0 None None - -
12/18/2014 20:31 Ice Warning 31.1F 31F 32F 10 0% - 100% 0 mhos 0 None None - -
12/18/2014 20:31 Ice Warning 31.1F 31F 32F 10 0% - 100% 0 mhos 0 None None - -
Date/Time
(MST)
Sf
Temp Chem Water Layer Surface Precipitation
Sf Sub Frz Factor Pct Depth IcePct Cond Salin Type Intens Accum Rate
12/18/2014 20:21 Ice Warning 31.3F 31F 32F 10 0% - 100% 0 mhos 0 None None - -
12/18/2014 20:11 Ice Warning 31.3F 31F 32F 10 0% - 100% 0 mhos 0 None None - -
12/18/2014 20:01 Ice Warning 31.3F 31F 32F 5 0% - 100% 0 mhos 0 None None - -
12/18/2014 20:01 Ice Warning 31.3F 31F 32F 5 0% - 100% 0 mhos 0 None None - -
12/18/2014 19:51 Ice Warning 31.5F 31F 32F 5 0% - 100% 0 mhos 0 None None - -
12/18/2014 19:41 Ice Warning 31.5F 31F 32F 5 0% - 100% 0 mhos 0 None None - -
12/18/2014 19:31 Ice Warning 31.8F 31F 32F 5 0% - 100% 0 mhos 0 None None - -
12/18/2014 19:31 Ice Warning 31.8F 31F 32F 5 0% - 100% 0 mhos 0 None None - -
12/18/2014 19:21 Ice Warning 32.0F 31F 32F 5 0% - 100% 0 mhos 0 None None - -
12/18/2014 19:11 Wet 32.4F 31F 32F 5 0% 0.00 in 0% 0 mhos 14 None None - -
12/18/2014 19:01 Wet 32.4F 31F 32F 5 0% 0.00 in 0% 0 mhos 0 None None - -
12/18/2014 19:01 Wet 32.4F 31F 32F 5 0% 0.00 in 0% 0 mhos 0 None None - -
12/18/2014 18:51 Wet 32.5F 31F 32F 5 0% 0.00 in 0% 0 mhos 0 None None - -
12/18/2014 18:41 Wet 32.5F 31F 32F 5 0% 0.00 in 0% 0 mhos 0 None None - -
12/18/2014 18:31 Wet 32.4F 31F 32F 5 0% 0.00 in 0% 0 mhos 0 None None - -
Date/Time
(MST)
Sf
Temp Chem Water Layer Surface Precipitation
Sf Sub Frz Factor Pct Depth IcePct Cond Salin Type Intens Accum Rate
12/18/2014 18:31 Wet 32.4F 31F 32F 5 0% 0.00 in 0% 0 mhos 0 None None - -
12/18/2014 18:21 Wet 32.7F 31F 32F 5 0% 0.00 in 0% 0 mhos 0 None None - -
12/18/2014 18:10 Wet 32.5F 31F 32F 5 0% 0.00 in 0% 0 mhos 0 None None - -
12/18/2014 18:01 Wet 32.9F 31F 32F 5 0% 0.00 in 0% 0 mhos 2 None None - -
12/18/2014 18:00 Wet 32.9F 31F 32F 5 0% 0.00 in 0% 0 mhos 2 None None - -
12/18/2014 17:50 Wet 32.9F 31F 32F 5 0% 0.00 in 0% 0 mhos 2 None None - -
12/18/2014 17:40 Wet 32.9F 31F 32F 5 0% 0.00 in 0% 0 mhos 0 None None - -
12/18/2014 17:33 Wet 33.1F 31F 32F 5 0% 0.00 in 0% 0 mhos 7 None None - -
12/18/2014 17:30 Wet 33.3F 31F 32F 5 0% 0.00 in 0% 0 mhos 6 None None - -
12/18/2014 17:20 Wet 33.4F 31F 32F 5 0% 0.00 in 0% 0 mhos 0 None None - -
12/18/2014 17:10 Wet 33.6F 31F 32F 5 0% 0.00 in 0% 0 mhos 0 None None - -
12/18/2014 17:01 Wet 34.0F 31F 32F 5 0% 0.00 in 0% 0 mhos 0 None None - -
12/18/2014 17:00 Wet 34.0F 31F 32F 5 0% 0.00 in 0% 0 mhos 0 None None - -
12/18/2014 16:50 Wet 34.7F 31F 32F 5 0% 0.00 in 0% 0 mhos 0 None None - -
12/18/2014 16:40 Wet 35.1F 31F 32F 5 0% 0.00 in 0% 0 mhos 0 None None - -
Date/Time
(MST)
Sf
Temp Chem Water Layer Surface Precipitation
Sf Sub Frz Factor Pct Depth IcePct Cond Salin Type Intens Accum Rate
12/18/2014 16:31 Wet 35.4F 31F 32F 5 0% 0.00 in 0% 0 mhos 0 None None - -
12/18/2014 16:30 Wet 35.8F 31F 32F 5 0% 0.00 in 0% 0 mhos 0 None None - -
12/18/2014 16:20 Trace Moisture 36.1F 31F - 5 - - - 0 mhos 0 None None - -
12/18/2014 16:10 Trace Moisture 36.1F 31F - 5 - - - 0 mhos 0 None None - -
12/18/2014 16:01 Trace Moisture 36.9F 31F - 5 - - - 0 mhos 0 None None - -
12/18/2014 16:00 Trace Moisture 36.9F 31F - 5 - - - 0 mhos 0 None None - -
12/18/2014 15:50 Trace Moisture 37.4F 31F - 5 - - - 0 mhos 0 None None - -
12/18/2014 15:40 Trace Moisture 38.8F 31F - 5 - - - 0 mhos 0 None None - -
12/18/2014 15:31 Trace Moisture 39.9F 31F - 5 - - - 0 mhos 0 None None - -
12/18/2014 15:30 Trace Moisture 40.1F 31F - 5 - - - 0 mhos 0 None None - -
12/18/2014 15:20 Trace Moisture 41.4F 31F - 5 - - - 0 mhos 0 None None - -
12/18/2014 15:10 Trace Moisture 42.3F 31F - 5 - - - 0 mhos 0 None None - -
12/18/2014 15:01 Trace Moisture 42.4F 31F - 5 - - - 0 mhos 0 None None - -
12/18/2014 15:00 Trace Moisture 42.4F 31F - 5 - - - 0 mhos 0 None None - -
12/18/2014 14:50 Dry 43.5F 31F - - - - - 0 mhos 0 None None - -
Date/Time
(MST)
Sf
Temp Chem Water Layer Surface Precipitation
Sf Sub Frz Factor Pct Depth IcePct Cond Salin Type Intens Accum Rate
12/18/2014 14:40 Dry 43.9F 31F - - - - - 0 mhos 0 None None - -
12/18/2014 14:31 Dry 44.4F 31F - - - - - 0 mhos 0 None None - -
12/18/2014 14:30 Dry 44.6F 31F - - - - - 0 mhos 0 None None - -
12/18/2014 14:20 Dry 46.8F 31F - - - - - 0 mhos 0 None None - -
12/18/2014 14:10 Dry 52.0F 31F - - - - - 0 mhos 0 None None - -
12/18/2014 14:01 Dry 50.9F 31F - - - - - 0 mhos 0 None None - -
12/18/2014 13:59 Dry 50.7F 31F - - - - - 0 mhos 0 None None - -
12/18/2014 13:49 Dry 50.7F 31F - - - - - 0 mhos 0 None None - -
12/18/2014 13:39 Dry 50.9F 31F - - - - - 0 mhos 0 None None - -
12/18/2014 13:31 Dry 51.6F 30F - - - - - 0 mhos 0 None None - -
12/18/2014 13:29 Dry 51.8F 30F - - - - - 0 mhos 0 None None - -
12/18/2014 13:19 Dry 51.6F 30F - - - - - 0 mhos 0 None None - -
12/18/2014 13:09 Dry 50.0F 30F - - - - - 0 mhos 0 None None - -
12/18/2014 13:01 Dry 46.6F 30F - - - - - 0 mhos 0 None None - -
12/18/2014 12:59 Dry 47.8F 30F - - - - - 0 mhos 0 None None - -
Date/Time
(MST)
Sf
Temp Chem Water Layer Surface Precipitation
Sf Sub Frz Factor Pct Depth IcePct Cond Salin Type Intens Accum Rate
12/18/2014 12:49 Dry 50.2F 30F - - - - - 0 mhos 1 None None - -
12/18/2014 12:41 Dry 48.2F 30F - - - - - 0 mhos 1 None None - -
12/18/2014 12:39 Dry 48.0F 30F - - - - - 0 mhos 1 None None - -
12/18/2014 12:29 Dry 43.3F 30F - - - - - 0 mhos 3 None None - -
12/18/2014 12:19 Dry 44.1F 30F - - - - - 0 mhos 6 None None - -
12/18/2014 12:13 Dry 44.4F 30F - - - - - 0 mhos 10 None None - -
12/18/2014 12:09 Dry 45.5F 30F - - - - - 0 mhos 12 None None - -
12/18/2014 11:59 Dry 45.7F 30F - - - - - 0 mhos 14 None None - -
12/18/2014 11:49 Dry 43.7F 30F - - - - - 0 mhos 14 None None - -
12/18/2014 11:45 Dry 42.8F 30F - - - - - 0 mhos 14 None None - -
12/18/2014 11:39 Dry 42.4F 30F - - - - - 0 mhos 13 None None - -
12/18/2014 11:29 Trace Moisture 40.8F 30F - 5 - - - 0 mhos 8 None None - -
12/18/2014 11:19 Dry 39.6F 30F - - - - - 0 mhos 0 None None - -
12/18/2014 11:15 Dry 39.0F 30F - - - - - 0 mhos 20 None None - -
12/18/2014 11:09 Dry 39.2F 31F - - - - - 0 mhos 0 None None - -
Date/Time
(MST)
Sf
Temp Chem Water Layer Surface Precipitation
Sf Sub Frz Factor Pct Depth IcePct Cond Salin Type Intens Accum Rate
12/18/2014 10:59 Dry 37.6F 31F - - - - - 1 mhos 82 None None - -
12/18/2014 10:49 Wet 35.1F 31F 32F 5 0% 0.00 in 0% 0 mhos 43 None None - -
12/18/2014 10:41 Wet 32.5F 31F 32F 5 0% 0.00 in 0% 0 mhos 35 None None - -
12/18/2014 10:39 Wet 32.9F 31F 32F 5 0% 0.00 in 0% 0 mhos 32 None None - -
12/18/2014 10:29 Chemically Wet 32.0F 31F 32F 5 0% 0.00 in 0% 0 mhos 24 None None - -
12/18/2014 10:19 Ice Warning 31.5F 31F 32F 5 0% - 98% 0 mhos 22 None None - -
12/18/2014 10:13 Ice Warning 31.5F 31F 32F 5 0% - 98% 0 mhos 20 None None - -
12/18/2014 10:09 Ice Warning 31.5F 31F 32F 5 0% - 99% 0 mhos 20 None None - -
12/18/2014 09:59 Ice Warning 31.5F 31F 32F 5 0% - 98% 0 mhos 28 None None - -
12/18/2014 09:48 Ice Warning 30.9F 31F 32F 5 0% - 99% 0 mhos 35 None None - -
12/18/2014 09:41 Ice Warning 29.3F 31F 32F 5 0% - 99% 0 mhos 42 None None - -
12/18/2014 09:38 Ice Warning 28.2F 31F 32F 10 0% - 99% 0 mhos 48 None None - -
12/18/2014 09:28 Ice Warning 25.3F 31F 32F 50 0% - 100% 0 mhos 55 None None - -
12/18/2014 09:18 Ice Warning 23.4F 31F 32F 65 0% - 100% 0 mhos 52 None None - -
12/18/2014 09:13 Ice Warning 23.4F 31F 32F 55 0% - 100% 0 mhos 44 None None - -
Date/Time
(MST)
Sf
Temp Chem Water Layer Surface Precipitation
Sf Sub Frz Factor Pct Depth IcePct Cond Salin Type Intens Accum Rate
12/18/2014 09:08 Ice Warning 23.5F 31F 32F 40 0% - 100% 0 mhos 31 None None - -
12/18/2014 08:58 Ice Warning 23.5F 31F 32F 65 0% - 100% 0 mhos 46 None None - -
12/18/2014 08:48 Ice Warning 22.8F 31F 32F 75 0% - 100% 0 mhos 43 None None - -
12/18/2014 08:41 Ice Warning 22.5F 31F 32F 75 0% - 100% 0 mhos 71 None None - -
12/18/2014 08:38 Ice Warning 22.1F 31F 32F 65 0% - 100% 0 mhos 46 None None - -
12/18/2014 08:28 Ice Warning 21.4F 31F 32F 70 0% - 100% 0 mhos 47 None None - -
12/18/2014 08:18 Ice Warning 21.0F 31F 32F 70 0% - 100% 0 mhos 39 None None - -
12/18/2014 08:11 Ice Warning 20.5F 31F 32F 65 0% - 100% 0 mhos 38 None None - -
12/18/2014 08:08 Ice Warning 20.5F 31F 32F 70 0% - 100% 0 mhos 52 None None - -
12/18/2014 07:58 Ice Warning 19.9F 31F 32F 60 0% - 100% 0 mhos 45 None None - -
12/18/2014 07:48 Ice Warning 20.1F 31F 32F 50 0% - 100% 0 mhos 64 None None - -
12/18/2014 07:41 Ice Warning 19.8F 31F 32F 60 0% - 100% 0 mhos 50 None None - -
12/18/2014 07:38 Ice Warning 19.8F 31F 32F 60 0% - 100% 0 mhos 50 None None - -
12/18/2014 07:28 Ice Warning 19.4F 31F 32F 60 0% - 100% 0 mhos 79 None None - -
12/18/2014 07:18 Ice Warning 19.2F 31F 32F 55 0% - 100% 0 mhos 60 None None - -
Date/Time
(MST)
Sf
Temp Chem Water Layer Surface Precipitation
Sf Sub Frz Factor Pct Depth IcePct Cond Salin Type Intens Accum Rate
12/18/2014 07:13 Ice Warning 19.0F 31F 32F 70 0% - 100% 0 mhos 88 None None - -
12/18/2014 07:08 Ice Warning 19.0F 31F 32F 55 0% - 100% 0 mhos 76 None None - -
12/18/2014 06:58 Ice Warning 18.5F 31F 32F 60 0% - 100% 0 mhos 84 None None - -
12/18/2014 06:48 Ice Warning 17.4F 31F 32F 50 0% - 100% 0 mhos 94 None None - -
12/18/2014 06:41 Ice Warning 17.1F 31F 32F 35 0% - 100% 0 mhos 96 None None - -
12/18/2014 06:38 Ice Warning 16.7F 31F 32F 30 0% - 100% 0 mhos 99 None None - -
12/18/2014 06:28 Ice Warning 16.5F 31F 32F 25 0% - 100% 0 mhos 80 None None - -
12/18/2014 06:18 Ice Warning 16.7F 32F 32F 25 0% - 100% 0 mhos 79 None None - -
12/18/2014 06:11 Ice Warning 17.1F 32F 32F 30 0% - 100% 0 mhos 92 None None - -
12/18/2014 06:08 Ice Warning 17.2F 32F 32F 30 0% - 100% 0 mhos 65 None None - -
12/18/2014 05:58 Ice Warning 17.1F 32F 32F 20 0% - 100% 0 mhos 96 None None - -
12/18/2014 05:48 Ice Warning 16.3F 32F 32F 15 0% - 100% 0 mhos 101 None None - -
12/18/2014 05:41 Ice Warning 16.2F 32F 32F 15 0% - 100% 0 mhos 73 None None - -
12/18/2014 05:37 Ice Warning 16.2F 32F 32F 15 0% - 100% 0 mhos 99 None None - -
12/18/2014 05:27 Ice Warning 16.3F 32F 32F 20 0% - 100% 0 mhos 95 None None - -
Date/Time
(MST)
Sf
Temp Chem Water Layer Surface Precipitation
Sf Sub Frz Factor Pct Depth IcePct Cond Salin Type Intens Accum Rate
12/18/2014 05:17 Ice Warning 16.3F 32F 32F 20 0% - 100% 0 mhos 101 None None - -
12/18/2014 05:11 Ice Warning 16.2F 32F 32F 15 0% - 100% 0 mhos 85 None None - -
12/18/2014 05:07 Ice Warning 16.2F 32F 32F 15 0% - 100% 0 mhos 96 None None - -
12/18/2014 04:57 Ice Warning 16.2F 32F 32F 15 0% - 100% 0 mhos 96 None None - -
12/18/2014 04:47 Ice Warning 16.5F 32F 32F 15 0% - 100% 0 mhos 76 None None - -
12/18/2014 04:41 Ice Warning 16.5F 32F 32F 15 0% - 100% 0 mhos 70 None None - -
12/18/2014 04:37 Ice Warning 16.7F 32F 32F 15 0% - 100% 0 mhos 90 None None - -
12/18/2014 04:27 Ice Warning 16.5F 32F 32F 15 0% - 100% 0 mhos 97 None None - -
12/18/2014 04:17 Ice Warning 16.5F 32F 32F 15 0% - 100% 0 mhos 95 None None - -
12/18/2014 04:11 Ice Warning 16.9F 32F 32F 15 0% - 100% 0 mhos 83 None None - -
12/18/2014 04:07 Ice Warning 16.7F 32F 32F 15 0% - 100% 0 mhos 87 None None - -
12/18/2014 03:57 Ice Warning 16.7F 32F 32F 10 0% - 100% 0 mhos 93 None None - -
12/18/2014 03:47 Ice Warning 16.7F 32F 32F 10 0% - 100% 0 mhos 89 None None - -
12/18/2014 03:41 Ice Warning 16.9F 32F 32F 10 0% - 100% 0 mhos 92 None None - -
12/18/2014 03:37 Ice Warning 17.1F 32F 32F 10 0% - 100% 0 mhos 76 None None - -
Date/Time
(MST)
Sf
Temp Chem Water Layer Surface Precipitation
Sf Sub Frz Factor Pct Depth IcePct Cond Salin Type Intens Accum Rate
12/18/2014 03:27 Ice Warning 17.2F 32F 32F 10 0% - 100% 0 mhos 88 None None - -
12/18/2014 03:17 Ice Warning 17.1F 32F 32F 10 0% - 100% 0 mhos 67 None None - -
12/18/2014 03:11 Ice Warning 17.2F 32F 32F 10 0% - 100% 0 mhos 83 None None - -
12/18/2014 03:07 Ice Warning 17.2F 32F 32F 10 0% - 100% 0 mhos 47 None None - -
12/18/2014 02:57 Ice Warning 17.4F 32F 32F 10 0% - 100% 0 mhos 65 None None - -
12/18/2014 02:47 Ice Warning 17.8F 32F 32F 10 0% - 100% 0 mhos 75 None None - -
12/18/2014 02:41 Ice Warning 17.8F 32F 32F 15 0% - 100% 0 mhos 46 None None - -
12/18/2014 02:37 Ice Warning 18.0F 32F 32F 10 0% - 100% 0 mhos 44 None None - -
12/18/2014 02:27 Ice Warning 18.0F 32F 32F 10 0% - 100% 0 mhos 70 None None - -
Change End Date:
Copyright © 1998-2005 Surface Systems, Inc.
All Rights Reserved
Send comments about the data to:
SCAN Web ® is a registered trademark of Surface Systems, Inc.
SCAN Web Version 5.6